sensor_id;sensor_type;location;lat;lon;timestamp;P1;durP1;ratioP1;P2;durP2;ratioP2
19867;SDS011;10096;51.112;6.776;2023-03-26T00:00:48;18.80;;;5.43;;
19867;SDS011;10096;51.112;6.776;2023-03-26T00:03:18;13.10;;;4.60;;
19867;SDS011;10096;51.112;6.776;2023-03-26T00:05:46;18.02;;;5.40;;
19867;SDS011;10096;51.112;6.776;2023-03-26T00:08:15;17.48;;;5.10;;
19867;SDS011;10096;51.112;6.776;2023-03-26T00:10:42;20.95;;;5.03;;
19867;SDS011;10096;51.112;6.776;2023-03-26T00:13:10;19.50;;;6.63;;
19867;SDS011;10096;51.112;6.776;2023-03-26T00:15:38;16.48;;;5.45;;
19867;SDS011;10096;51.112;6.776;2023-03-26T00:18:08;20.25;;;6.28;;
19867;SDS011;10096;51.112;6.776;2023-03-26T00:20:36;23.10;;;6.35;;
19867;SDS011;10096;51.112;6.776;2023-03-26T00:23:05;16.73;;;5.33;;
19867;SDS011;10096;51.112;6.776;2023-03-26T00:25:33;15.60;;;5.47;;
19867;SDS011;10096;51.112;6.776;2023-03-26T00:28:05;21.17;;;6.10;;
19867;SDS011;10096;51.112;6.776;2023-03-26T00:30:34;20.90;;;6.03;;
19867;SDS011;10096;51.112;6.776;2023-03-26T00:33:07;14.10;;;4.70;;
19867;SDS011;10096;51.112;6.776;2023-03-26T00:35:36;19.73;;;5.33;;
19867;SDS011;10096;51.112;6.776;2023-03-26T00:38:03;15.80;;;4.63;;
19867;SDS011;10096;51.112;6.776;2023-03-26T00:40:35;18.20;;;5.50;;
19867;SDS011;10096;51.112;6.776;2023-03-26T00:43:02;17.93;;;5.60;;
19867;SDS011;10096;51.112;6.776;2023-03-26T00:45:42;17.90;;;5.80;;
19867;SDS011;10096;51.112;6.776;2023-03-26T00:48:11;19.65;;;4.95;;
19867;SDS011;10096;51.112;6.776;2023-03-26T00:50:39;20.45;;;6.45;;
19867;SDS011;10096;51.112;6.776;2023-03-26T00:53:07;19.52;;;7.03;;
19867;SDS011;10096;51.112;6.776;2023-03-26T00:55:36;14.00;;;5.05;;
19867;SDS011;10096;51.112;6.776;2023-03-26T00:58:04;18.27;;;4.80;;
19867;SDS011;10096;51.112;6.776;2023-03-26T01:00:34;18.98;;;5.32;;
19867;SDS011;10096;51.112;6.776;2023-03-26T01:03:02;17.98;;;5.35;;
19867;SDS011;10096;51.112;6.776;2023-03-26T01:05:40;13.73;;;5.30;;
19867;SDS011;10096;51.112;6.776;2023-03-26T01:08:13;13.25;;;4.97;;
19867;SDS011;10096;51.112;6.776;2023-03-26T01:10:44;16.38;;;5.15;;
19867;SDS011;10096;51.112;6.776;2023-03-26T01:13:15;17.17;;;6.20;;
19867;SDS011;10096;51.112;6.776;2023-03-26T01:15:43;15.87;;;5.27;;
19867;SDS011;10096;51.112;6.776;2023-03-26T01:18:14;20.42;;;5.80;;
19867;SDS011;10096;51.112;6.776;2023-03-26T01:20:45;18.93;;;5.63;;
19867;SDS011;10096;51.112;6.776;2023-03-26T01:23:16;15.40;;;5.30;;
19867;SDS011;10096;51.112;6.776;2023-03-26T01:25:51;15.53;;;5.17;;
19867;SDS011;10096;51.112;6.776;2023-03-26T01:28:27;17.92;;;5.38;;
19867;SDS011;10096;51.112;6.776;2023-03-26T01:31:01;15.23;;;4.95;;
19867;SDS011;10096;51.112;6.776;2023-03-26T01:33:36;13.73;;;5.43;;
19867;SDS011;10096;51.112;6.776;2023-03-26T01:36:13;18.13;;;5.80;;
19867;SDS011;10096;51.112;6.776;2023-03-26T01:38:46;17.40;;;6.30;;
19867;SDS011;10096;51.112;6.776;2023-03-26T01:41:20;13.60;;;4.33;;
19867;SDS011;10096;51.112;6.776;2023-03-26T01:43:53;17.13;;;4.83;;
19867;SDS011;10096;51.112;6.776;2023-03-26T01:46:25;12.13;;;4.40;;
19867;SDS011;10096;51.112;6.776;2023-03-26T01:48:54;19.17;;;5.47;;
19867;SDS011;10096;51.112;6.776;2023-03-26T01:51:25;16.07;;;5.03;;
19867;SDS011;10096;51.112;6.776;2023-03-26T01:53:54;14.17;;;4.70;;
19867;SDS011;10096;51.112;6.776;2023-03-26T01:56:24;11.67;;;4.77;;
19867;SDS011;10096;51.112;6.776;2023-03-26T01:59:00;18.70;;;4.73;;
19867;SDS011;10096;51.112;6.776;2023-03-26T02:01:39;15.07;;;4.40;;
19867;SDS011;10096;51.112;6.776;2023-03-26T02:04:12;13.13;;;4.50;;
19867;SDS011;10096;51.112;6.776;2023-03-26T02:06:48;15.70;;;4.93;;
19867;SDS011;10096;51.112;6.776;2023-03-26T02:09:19;18.10;;;4.37;;
19867;SDS011;10096;51.112;6.776;2023-03-26T02:11:51;11.50;;;5.10;;
19867;SDS011;10096;51.112;6.776;2023-03-26T02:14:19;18.67;;;5.10;;
19867;SDS011;10096;51.112;6.776;2023-03-26T02:16:46;18.43;;;4.97;;
19867;SDS011;10096;51.112;6.776;2023-03-26T02:19:15;15.23;;;4.93;;
19867;SDS011;10096;51.112;6.776;2023-03-26T02:21:45;15.83;;;4.13;;
19867;SDS011;10096;51.112;6.776;2023-03-26T02:24:15;15.27;;;4.30;;
19867;SDS011;10096;51.112;6.776;2023-03-26T02:26:43;12.83;;;4.13;;
19867;SDS011;10096;51.112;6.776;2023-03-26T02:29:12;15.27;;;4.10;;
19867;SDS011;10096;51.112;6.776;2023-03-26T02:31:43;14.03;;;4.37;;
19867;SDS011;10096;51.112;6.776;2023-03-26T02:34:11;17.07;;;4.63;;
19867;SDS011;10096;51.112;6.776;2023-03-26T02:36:38;14.37;;;4.53;;
19867;SDS011;10096;51.112;6.776;2023-03-26T02:39:07;14.03;;;4.17;;
19867;SDS011;10096;51.112;6.776;2023-03-26T02:41:34;14.90;;;4.60;;
19867;SDS011;10096;51.112;6.776;2023-03-26T02:44:02;13.77;;;5.03;;
19867;SDS011;10096;51.112;6.776;2023-03-26T02:46:32;14.90;;;3.97;;
19867;SDS011;10096;51.112;6.776;2023-03-26T02:48:59;10.20;;;3.80;;
19867;SDS011;10096;51.112;6.776;2023-03-26T02:51:26;15.67;;;4.50;;
19867;SDS011;10096;51.112;6.776;2023-03-26T02:53:53;10.20;;;4.00;;
19867;SDS011;10096;51.112;6.776;2023-03-26T02:56:20;11.37;;;4.07;;
19867;SDS011;10096;51.112;6.776;2023-03-26T02:58:47;11.07;;;3.97;;
19867;SDS011;10096;51.112;6.776;2023-03-26T03:01:14;13.23;;;4.13;;
19867;SDS011;10096;51.112;6.776;2023-03-26T03:03:44;11.53;;;4.03;;
19867;SDS011;10096;51.112;6.776;2023-03-26T03:06:13;19.57;;;5.40;;
19867;SDS011;10096;51.112;6.776;2023-03-26T03:08:42;14.40;;;3.73;;
19867;SDS011;10096;51.112;6.776;2023-03-26T03:11:11;13.47;;;4.17;;
19867;SDS011;10096;51.112;6.776;2023-03-26T03:13:40;14.38;;;4.78;;
19867;SDS011;10096;51.112;6.776;2023-03-26T03:16:07;12.00;;;4.35;;
19867;SDS011;10096;51.112;6.776;2023-03-26T03:18:35;11.90;;;4.18;;
19867;SDS011;10096;51.112;6.776;2023-03-26T03:21:04;13.38;;;4.35;;
19867;SDS011;10096;51.112;6.776;2023-03-26T03:23:31;11.77;;;3.65;;
19867;SDS011;10096;51.112;6.776;2023-03-26T03:25:58;12.10;;;3.90;;
19867;SDS011;10096;51.112;6.776;2023-03-26T03:28:26;11.15;;;3.92;;
19867;SDS011;10096;51.112;6.776;2023-03-26T03:30:54;15.00;;;4.50;;
19867;SDS011;10096;51.112;6.776;2023-03-26T03:33:23;15.40;;;4.57;;
19867;SDS011;10096;51.112;6.776;2023-03-26T03:35:50;10.47;;;3.50;;
19867;SDS011;10096;51.112;6.776;2023-03-26T03:38:19;13.27;;;3.90;;
19867;SDS011;10096;51.112;6.776;2023-03-26T03:40:46;15.03;;;4.13;;
19867;SDS011;10096;51.112;6.776;2023-03-26T03:43:13;11.13;;;3.87;;
19867;SDS011;10096;51.112;6.776;2023-03-26T03:45:40;16.95;;;4.13;;
19867;SDS011;10096;51.112;6.776;2023-03-26T03:48:11;10.13;;;4.00;;
19867;SDS011;10096;51.112;6.776;2023-03-26T03:50:40;11.60;;;4.30;;
19867;SDS011;10096;51.112;6.776;2023-03-26T03:53:12;10.97;;;4.20;;
19867;SDS011;10096;51.112;6.776;2023-03-26T03:55:41;7.57;;;2.95;;
19867;SDS011;10096;51.112;6.776;2023-03-26T03:58:17;9.20;;;3.37;;
19867;SDS011;10096;51.112;6.776;2023-03-26T04:00:45;10.02;;;3.67;;
19867;SDS011;10096;51.112;6.776;2023-03-26T04:03:14;9.63;;;3.47;;
19867;SDS011;10096;51.112;6.776;2023-03-26T04:05:41;9.17;;;3.97;;
19867;SDS011;10096;51.112;6.776;2023-03-26T04:08:13;10.17;;;3.90;;
19867;SDS011;10096;51.112;6.776;2023-03-26T04:10:41;11.38;;;3.80;;
19867;SDS011;10096;51.112;6.776;2023-03-26T04:13:09;9.23;;;3.50;;
19867;SDS011;10096;51.112;6.776;2023-03-26T04:15:36;7.60;;;3.37;;
19867;SDS011;10096;51.112;6.776;2023-03-26T04:18:03;11.75;;;4.35;;
19867;SDS011;10096;51.112;6.776;2023-03-26T04:20:34;11.32;;;3.45;;
19867;SDS011;10096;51.112;6.776;2023-03-26T04:23:01;11.17;;;3.63;;
19867;SDS011;10096;51.112;6.776;2023-03-26T04:25:28;13.90;;;4.17;;
19867;SDS011;10096;51.112;6.776;2023-03-26T04:27:58;12.80;;;3.30;;
19867;SDS011;10096;51.112;6.776;2023-03-26T04:30:30;9.52;;;3.85;;
19867;SDS011;10096;51.112;6.776;2023-03-26T04:32:58;14.20;;;3.63;;
19867;SDS011;10096;51.112;6.776;2023-03-26T04:35:27;6.38;;;2.72;;
19867;SDS011;10096;51.112;6.776;2023-03-26T04:38:01;12.05;;;3.40;;
19867;SDS011;10096;51.112;6.776;2023-03-26T04:40:30;9.50;;;3.80;;
19867;SDS011;10096;51.112;6.776;2023-03-26T04:43:00;13.38;;;3.90;;
19867;SDS011;10096;51.112;6.776;2023-03-26T04:45:27;8.52;;;3.85;;
19867;SDS011;10096;51.112;6.776;2023-03-26T04:47:55;9.30;;;3.17;;
19867;SDS011;10096;51.112;6.776;2023-03-26T04:50:22;9.68;;;3.45;;
19867;SDS011;10096;51.112;6.776;2023-03-26T04:52:50;9.63;;;3.60;;
19867;SDS011;10096;51.112;6.776;2023-03-26T04:55:20;12.97;;;4.07;;
19867;SDS011;10096;51.112;6.776;2023-03-26T04:57:51;7.53;;;3.13;;
19867;SDS011;10096;51.112;6.776;2023-03-26T05:00:22;9.97;;;3.33;;
19867;SDS011;10096;51.112;6.776;2023-03-26T05:02:49;11.25;;;3.70;;
19867;SDS011;10096;51.112;6.776;2023-03-26T05:05:19;13.30;;;3.63;;
19867;SDS011;10096;51.112;6.776;2023-03-26T05:07:46;15.40;;;4.50;;
19867;SDS011;10096;51.112;6.776;2023-03-26T05:10:14;9.03;;;3.67;;
19867;SDS011;10096;51.112;6.776;2023-03-26T05:12:41;11.40;;;3.27;;
19867;SDS011;10096;51.112;6.776;2023-03-26T05:15:09;9.90;;;3.63;;
19867;SDS011;10096;51.112;6.776;2023-03-26T05:17:38;8.33;;;3.70;;
19867;SDS011;10096;51.112;6.776;2023-03-26T05:20:07;11.27;;;3.70;;
19867;SDS011;10096;51.112;6.776;2023-03-26T05:22:41;15.03;;;3.53;;
19867;SDS011;10096;51.112;6.776;2023-03-26T05:25:08;11.60;;;3.20;;
19867;SDS011;10096;51.112;6.776;2023-03-26T05:27:35;11.43;;;3.67;;
19867;SDS011;10096;51.112;6.776;2023-03-26T05:30:02;15.70;;;3.70;;
19867;SDS011;10096;51.112;6.776;2023-03-26T05:32:31;6.27;;;3.13;;
19867;SDS011;10096;51.112;6.776;2023-03-26T05:35:00;8.60;;;3.40;;
19867;SDS011;10096;51.112;6.776;2023-03-26T05:37:27;9.33;;;3.80;;
19867;SDS011;10096;51.112;6.776;2023-03-26T05:39:55;9.90;;;3.10;;
19867;SDS011;10096;51.112;6.776;2023-03-26T05:42:24;8.73;;;3.20;;
19867;SDS011;10096;51.112;6.776;2023-03-26T05:44:51;9.83;;;3.30;;
19867;SDS011;10096;51.112;6.776;2023-03-26T05:47:18;11.50;;;3.83;;
19867;SDS011;10096;51.112;6.776;2023-03-26T05:49:45;8.52;;;3.30;;
19867;SDS011;10096;51.112;6.776;2023-03-26T05:52:13;13.33;;;3.77;;
19867;SDS011;10096;51.112;6.776;2023-03-26T05:54:43;10.47;;;3.73;;
19867;SDS011;10096;51.112;6.776;2023-03-26T05:57:10;9.03;;;3.60;;
19867;SDS011;10096;51.112;6.776;2023-03-26T05:59:36;13.17;;;3.87;;
19867;SDS011;10096;51.112;6.776;2023-03-26T06:02:03;9.77;;;3.63;;
19867;SDS011;10096;51.112;6.776;2023-03-26T06:04:30;11.70;;;3.70;;
19867;SDS011;10096;51.112;6.776;2023-03-26T06:06:57;11.40;;;4.40;;
19867;SDS011;10096;51.112;6.776;2023-03-26T06:09:27;13.37;;;3.93;;
19867;SDS011;10096;51.112;6.776;2023-03-26T06:11:54;8.57;;;3.77;;
19867;SDS011;10096;51.112;6.776;2023-03-26T06:14:24;10.50;;;3.90;;
19867;SDS011;10096;51.112;6.776;2023-03-26T06:16:51;9.80;;;3.27;;
19867;SDS011;10096;51.112;6.776;2023-03-26T06:19:18;7.30;;;3.27;;
19867;SDS011;10096;51.112;6.776;2023-03-26T06:21:45;9.30;;;3.53;;
19867;SDS011;10096;51.112;6.776;2023-03-26T06:24:12;8.87;;;3.40;;
19867;SDS011;10096;51.112;6.776;2023-03-26T06:26:44;9.93;;;3.73;;
19867;SDS011;10096;51.112;6.776;2023-03-26T06:29:12;8.83;;;3.67;;
19867;SDS011;10096;51.112;6.776;2023-03-26T06:31:39;9.27;;;3.00;;
19867;SDS011;10096;51.112;6.776;2023-03-26T06:34:06;9.90;;;3.70;;
19867;SDS011;10096;51.112;6.776;2023-03-26T06:36:33;10.87;;;3.40;;
19867;SDS011;10096;51.112;6.776;2023-03-26T06:39:00;8.20;;;3.90;;
19867;SDS011;10096;51.112;6.776;2023-03-26T06:41:33;11.23;;;3.63;;
19867;SDS011;10096;51.112;6.776;2023-03-26T06:44:01;10.73;;;3.17;;
19867;SDS011;10096;51.112;6.776;2023-03-26T06:46:28;8.27;;;3.97;;
19867;SDS011;10096;51.112;6.776;2023-03-26T06:48:55;12.63;;;4.13;;
19867;SDS011;10096;51.112;6.776;2023-03-26T06:51:23;8.63;;;3.50;;
19867;SDS011;10096;51.112;6.776;2023-03-26T06:53:50;11.07;;;3.80;;
19867;SDS011;10096;51.112;6.776;2023-03-26T06:56:23;11.90;;;3.93;;
19867;SDS011;10096;51.112;6.776;2023-03-26T06:58:50;10.13;;;3.87;;
19867;SDS011;10096;51.112;6.776;2023-03-26T07:01:19;10.57;;;4.33;;
19867;SDS011;10096;51.112;6.776;2023-03-26T07:03:46;10.53;;;3.90;;
19867;SDS011;10096;51.112;6.776;2023-03-26T07:06:13;8.87;;;3.67;;
19867;SDS011;10096;51.112;6.776;2023-03-26T07:08:39;10.10;;;3.73;;
19867;SDS011;10096;51.112;6.776;2023-03-26T07:11:06;8.70;;;3.57;;
19867;SDS011;10096;51.112;6.776;2023-03-26T07:13:33;11.23;;;3.40;;
19867;SDS011;10096;51.112;6.776;2023-03-26T07:16:01;9.10;;;3.53;;
19867;SDS011;10096;51.112;6.776;2023-03-26T07:18:30;9.83;;;4.10;;
19867;SDS011;10096;51.112;6.776;2023-03-26T07:20:57;9.07;;;4.40;;
19867;SDS011;10096;51.112;6.776;2023-03-26T07:23:24;10.27;;;4.40;;
19867;SDS011;10096;51.112;6.776;2023-03-26T07:25:52;7.87;;;3.70;;
19867;SDS011;10096;51.112;6.776;2023-03-26T07:28:22;14.68;;;4.40;;
19867;SDS011;10096;51.112;6.776;2023-03-26T07:30:58;8.10;;;3.87;;
19867;SDS011;10096;51.112;6.776;2023-03-26T07:33:36;10.23;;;4.27;;
19867;SDS011;10096;51.112;6.776;2023-03-26T07:36:12;10.70;;;4.50;;
19867;SDS011;10096;51.112;6.776;2023-03-26T07:38:50;8.47;;;3.77;;
19867;SDS011;10096;51.112;6.776;2023-03-26T07:41:40;8.85;;;3.75;;
19867;SDS011;10096;51.112;6.776;2023-03-26T07:44:20;10.23;;;4.37;;
19867;SDS011;10096;51.112;6.776;2023-03-26T07:47:06;12.13;;;4.27;;
19867;SDS011;10096;51.112;6.776;2023-03-26T07:49:48;7.67;;;3.83;;
19867;SDS011;10096;51.112;6.776;2023-03-26T07:52:16;14.47;;;4.67;;
19867;SDS011;10096;51.112;6.776;2023-03-26T07:54:43;10.60;;;4.43;;
19867;SDS011;10096;51.112;6.776;2023-03-26T07:57:12;12.57;;;4.50;;
19867;SDS011;10096;51.112;6.776;2023-03-26T07:59:45;9.30;;;4.50;;
19867;SDS011;10096;51.112;6.776;2023-03-26T08:02:30;9.80;;;4.60;;
19867;SDS011;10096;51.112;6.776;2023-03-26T08:08:06;9.30;;;4.50;;
19867;SDS011;10096;51.112;6.776;2023-03-26T08:10:41;12.00;;;4.40;;
19867;SDS011;10096;51.112;6.776;2023-03-26T08:13:20;15.30;;;4.73;;
19867;SDS011;10096;51.112;6.776;2023-03-26T08:15:52;13.57;;;4.47;;
19867;SDS011;10096;51.112;6.776;2023-03-26T08:18:34;10.20;;;5.93;;
19867;SDS011;10096;51.112;6.776;2023-03-26T08:21:12;10.90;;;4.63;;
19867;SDS011;10096;51.112;6.776;2023-03-26T08:23:48;12.53;;;4.33;;
19867;SDS011;10096;51.112;6.776;2023-03-26T08:26:24;8.40;;;4.03;;
19867;SDS011;10096;51.112;6.776;2023-03-26T08:28:57;13.10;;;4.53;;
19867;SDS011;10096;51.112;6.776;2023-03-26T08:31:36;9.57;;;4.27;;
19867;SDS011;10096;51.112;6.776;2023-03-26T08:34:07;10.83;;;4.37;;
19867;SDS011;10096;51.112;6.776;2023-03-26T08:36:38;13.27;;;4.45;;
19867;SDS011;10096;51.112;6.776;2023-03-26T08:39:05;12.47;;;4.57;;
19867;SDS011;10096;51.112;6.776;2023-03-26T08:41:58;10.37;;;4.13;;
19867;SDS011;10096;51.112;6.776;2023-03-26T08:51:04;9.67;;;3.80;;
19867;SDS011;10096;51.112;6.776;2023-03-26T08:56:58;9.67;;;4.20;;
19867;SDS011;10096;51.112;6.776;2023-03-26T09:00:01;7.13;;;3.90;;
19867;SDS011;10096;51.112;6.776;2023-03-26T09:02:53;7.20;;;3.87;;
19867;SDS011;10096;51.112;6.776;2023-03-26T09:05:44;10.10;;;4.00;;
19867;SDS011;10096;51.112;6.776;2023-03-26T09:08:45;6.90;;;3.10;;
19867;SDS011;10096;51.112;6.776;2023-03-26T09:23:33;6.67;;;2.87;;
19867;SDS011;10096;51.112;6.776;2023-03-26T09:26:28;5.83;;;2.50;;
19867;SDS011;10096;51.112;6.776;2023-03-26T09:29:19;4.40;;;2.60;;
19867;SDS011;10096;51.112;6.776;2023-03-26T09:35:27;5.00;;;2.07;;
19867;SDS011;10096;51.112;6.776;2023-03-26T09:38:17;6.30;;;2.67;;
19867;SDS011;10096;51.112;6.776;2023-03-26T09:41:07;5.37;;;2.47;;
19867;SDS011;10096;51.112;6.776;2023-03-26T09:47:14;2.40;;;1.50;;
19867;SDS011;10096;51.112;6.776;2023-03-26T09:49:55;3.23;;;1.97;;
19867;SDS011;10096;51.112;6.776;2023-03-26T09:52:43;3.93;;;2.07;;
19867;SDS011;10096;51.112;6.776;2023-03-26T09:55:32;4.17;;;1.70;;
19867;SDS011;10096;51.112;6.776;2023-03-26T10:01:05;3.57;;;2.60;;
19867;SDS011;10096;51.112;6.776;2023-03-26T10:03:38;6.97;;;2.70;;
19867;SDS011;10096;51.112;6.776;2023-03-26T10:06:26;4.90;;;2.57;;
19867;SDS011;10096;51.112;6.776;2023-03-26T10:09:28;4.23;;;2.60;;
19867;SDS011;10096;51.112;6.776;2023-03-26T10:12:21;5.57;;;2.73;;
19867;SDS011;10096;51.112;6.776;2023-03-26T10:15:02;2.30;;;1.50;;
19867;SDS011;10096;51.112;6.776;2023-03-26T10:17:42;2.97;;;1.40;;
19867;SDS011;10096;51.112;6.776;2023-03-26T10:20:37;2.70;;;1.50;;
19867;SDS011;10096;51.112;6.776;2023-03-26T10:23:28;4.53;;;1.77;;
19867;SDS011;10096;51.112;6.776;2023-03-26T10:26:32;3.93;;;1.77;;
19867;SDS011;10096;51.112;6.776;2023-03-26T10:29:29;5.17;;;2.10;;
19867;SDS011;10096;51.112;6.776;2023-03-26T10:32:14;4.03;;;2.10;;
19867;SDS011;10096;51.112;6.776;2023-03-26T10:34:49;1.77;;;1.57;;
19867;SDS011;10096;51.112;6.776;2023-03-26T10:37:43;3.57;;;1.80;;
19867;SDS011;10096;51.112;6.776;2023-03-26T10:40:22;1.97;;;1.80;;
19867;SDS011;10096;51.112;6.776;2023-03-26T10:43:04;5.00;;;1.97;;
19867;SDS011;10096;51.112;6.776;2023-03-26T10:45:54;3.97;;;1.80;;
19867;SDS011;10096;51.112;6.776;2023-03-26T10:48:50;3.70;;;1.67;;
19867;SDS011;10096;51.112;6.776;2023-03-26T10:51:45;3.60;;;1.80;;
19867;SDS011;10096;51.112;6.776;2023-03-26T10:54:19;2.83;;;1.90;;
19867;SDS011;10096;51.112;6.776;2023-03-26T10:56:55;5.40;;;2.50;;
19867;SDS011;10096;51.112;6.776;2023-03-26T10:59:25;2.47;;;2.13;;
19867;SDS011;10096;51.112;6.776;2023-03-26T11:01:55;3.57;;;1.80;;
19867;SDS011;10096;51.112;6.776;2023-03-26T11:04:42;3.23;;;2.93;;
19867;SDS011;10096;51.112;6.776;2023-03-26T11:07:25;4.20;;;1.90;;
19867;SDS011;10096;51.112;6.776;2023-03-26T11:09:59;4.80;;;2.50;;
19867;SDS011;10096;51.112;6.776;2023-03-26T11:12:31;2.67;;;2.47;;
19867;SDS011;10096;51.112;6.776;2023-03-26T11:15:09;5.03;;;2.47;;
19867;SDS011;10096;51.112;6.776;2023-03-26T11:17:45;3.20;;;2.10;;
19867;SDS011;10096;51.112;6.776;2023-03-26T11:20:21;3.57;;;1.90;;
19867;SDS011;10096;51.112;6.776;2023-03-26T11:23:02;2.97;;;1.90;;
19867;SDS011;10096;51.112;6.776;2023-03-26T11:25:51;5.07;;;1.90;;
19867;SDS011;10096;51.112;6.776;2023-03-26T11:28:32;2.87;;;2.00;;
19867;SDS011;10096;51.112;6.776;2023-03-26T11:31:16;2.10;;;1.90;;
19867;SDS011;10096;51.112;6.776;2023-03-26T11:33:51;4.20;;;2.00;;
19867;SDS011;10096;51.112;6.776;2023-03-26T11:36:22;3.27;;;1.77;;
19867;SDS011;10096;51.112;6.776;2023-03-26T11:38:56;2.70;;;2.33;;
19867;SDS011;10096;51.112;6.776;2023-03-26T11:41:25;4.40;;;1.70;;
19867;SDS011;10096;51.112;6.776;2023-03-26T11:43:55;4.70;;;1.97;;
19867;SDS011;10096;51.112;6.776;2023-03-26T11:46:34;2.37;;;1.70;;
19867;SDS011;10096;51.112;6.776;2023-03-26T11:49:06;2.33;;;1.95;;
19867;SDS011;10096;51.112;6.776;2023-03-26T11:51:36;2.90;;;2.42;;
19867;SDS011;10096;51.112;6.776;2023-03-26T11:54:05;2.75;;;2.08;;
19867;SDS011;10096;51.112;6.776;2023-03-26T11:56:36;2.57;;;1.90;;
19867;SDS011;10096;51.112;6.776;2023-03-26T11:59:08;4.53;;;2.90;;
19867;SDS011;10096;51.112;6.776;2023-03-26T12:01:41;2.83;;;1.87;;
19867;SDS011;10096;51.112;6.776;2023-03-26T12:04:16;2.00;;;1.60;;
19867;SDS011;10096;51.112;6.776;2023-03-26T12:06:50;2.90;;;1.75;;
19867;SDS011;10096;51.112;6.776;2023-03-26T12:09:28;2.77;;;1.70;;
19867;SDS011;10096;51.112;6.776;2023-03-26T12:11:58;2.70;;;1.50;;
19867;SDS011;10096;51.112;6.776;2023-03-26T12:14:27;2.45;;;1.90;;
19867;SDS011;10096;51.112;6.776;2023-03-26T12:16:59;2.83;;;1.90;;
19867;SDS011;10096;51.112;6.776;2023-03-26T12:19:39;3.43;;;1.93;;
19867;SDS011;10096;51.112;6.776;2023-03-26T12:24:59;2.27;;;1.80;;
19867;SDS011;10096;51.112;6.776;2023-03-26T12:27:27;3.67;;;2.40;;
19867;SDS011;10096;51.112;6.776;2023-03-26T12:29:57;3.80;;;1.90;;
19867;SDS011;10096;51.112;6.776;2023-03-26T12:32:31;2.47;;;2.27;;
19867;SDS011;10096;51.112;6.776;2023-03-26T12:35:02;1.77;;;1.53;;
19867;SDS011;10096;51.112;6.776;2023-03-26T12:37:33;2.67;;;1.70;;
19867;SDS011;10096;51.112;6.776;2023-03-26T12:40:06;3.45;;;3.10;;
19867;SDS011;10096;51.112;6.776;2023-03-26T12:42:38;1.95;;;1.50;;
19867;SDS011;10096;51.112;6.776;2023-03-26T12:45:11;4.03;;;1.98;;
19867;SDS011;10096;51.112;6.776;2023-03-26T12:47:40;2.75;;;1.63;;
19867;SDS011;10096;51.112;6.776;2023-03-26T12:50:10;3.30;;;1.88;;
19867;SDS011;10096;51.112;6.776;2023-03-26T12:52:49;2.50;;;1.77;;
19867;SDS011;10096;51.112;6.776;2023-03-26T12:55:30;1.90;;;1.58;;
19867;SDS011;10096;51.112;6.776;2023-03-26T12:58:22;2.10;;;1.92;;
19867;SDS011;10096;51.112;6.776;2023-03-26T13:01:07;2.50;;;2.20;;
19867;SDS011;10096;51.112;6.776;2023-03-26T13:03:44;2.40;;;1.77;;
19867;SDS011;10096;51.112;6.776;2023-03-26T13:06:29;2.00;;;1.90;;
19867;SDS011;10096;51.112;6.776;2023-03-26T13:09:18;2.78;;;2.58;;
19867;SDS011;10096;51.112;6.776;2023-03-26T13:11:55;1.73;;;1.40;;
19867;SDS011;10096;51.112;6.776;2023-03-26T13:17:30;1.92;;;1.83;;
19867;SDS011;10096;51.112;6.776;2023-03-26T13:20:04;1.73;;;1.58;;
19867;SDS011;10096;51.112;6.776;2023-03-26T13:22:38;2.90;;;1.65;;
19867;SDS011;10096;51.112;6.776;2023-03-26T13:25:14;2.15;;;1.40;;
19867;SDS011;10096;51.112;6.776;2023-03-26T13:27:52;1.35;;;1.25;;
19867;SDS011;10096;51.112;6.776;2023-03-26T13:30:28;1.58;;;1.48;;
19867;SDS011;10096;51.112;6.776;2023-03-26T13:33:08;1.70;;;1.60;;
19867;SDS011;10096;51.112;6.776;2023-03-26T13:35:51;2.50;;;1.60;;
19867;SDS011;10096;51.112;6.776;2023-03-26T13:38:28;1.70;;;1.60;;
19867;SDS011;10096;51.112;6.776;2023-03-26T13:41:07;1.85;;;1.75;;
19867;SDS011;10096;51.112;6.776;2023-03-26T13:43:47;1.98;;;1.80;;
19867;SDS011;10096;51.112;6.776;2023-03-26T13:46:33;1.98;;;1.42;;
19867;SDS011;10096;51.112;6.776;2023-03-26T13:49:08;1.50;;;1.40;;
19867;SDS011;10096;51.112;6.776;2023-03-26T13:51:40;1.58;;;1.40;;
19867;SDS011;10096;51.112;6.776;2023-03-26T13:54:15;1.70;;;1.60;;
19867;SDS011;10096;51.112;6.776;2023-03-26T13:56:48;1.70;;;1.60;;
19867;SDS011;10096;51.112;6.776;2023-03-26T13:59:20;2.83;;;1.83;;
19867;SDS011;10096;51.112;6.776;2023-03-26T14:01:56;2.15;;;1.80;;
19867;SDS011;10096;51.112;6.776;2023-03-26T14:04:29;1.77;;;1.67;;
19867;SDS011;10096;51.112;6.776;2023-03-26T14:07:02;1.73;;;1.50;;
19867;SDS011;10096;51.112;6.776;2023-03-26T14:09:35;1.60;;;1.50;;
19867;SDS011;10096;51.112;6.776;2023-03-26T14:15:14;1.88;;;1.48;;
19867;SDS011;10096;51.112;6.776;2023-03-26T14:17:47;2.30;;;2.13;;
19867;SDS011;10096;51.112;6.776;2023-03-26T14:23:37;1.88;;;1.50;;
19867;SDS011;10096;51.112;6.776;2023-03-26T14:26:36;2.13;;;1.92;;
19867;SDS011;10096;51.112;6.776;2023-03-26T14:29:29;1.90;;;1.55;;
19867;SDS011;10096;51.112;6.776;2023-03-26T14:32:15;1.98;;;1.80;;
19867;SDS011;10096;51.112;6.776;2023-03-26T14:34:58;3.08;;;1.65;;
19867;SDS011;10096;51.112;6.776;2023-03-26T14:37:56;2.50;;;1.65;;
19867;SDS011;10096;51.112;6.776;2023-03-26T14:41:00;2.80;;;2.20;;
19867;SDS011;10096;51.112;6.776;2023-03-26T14:43:42;3.22;;;2.72;;
19867;SDS011;10096;51.112;6.776;2023-03-26T14:46:32;1.58;;;1.48;;
19867;SDS011;10096;51.112;6.776;2023-03-26T14:52:16;4.22;;;2.65;;
19867;SDS011;10096;51.112;6.776;2023-03-26T14:54:51;1.88;;;1.77;;
19867;SDS011;10096;51.112;6.776;2023-03-26T14:57:32;1.65;;;1.50;;
19867;SDS011;10096;51.112;6.776;2023-03-26T15:00:24;1.80;;;1.70;;
19867;SDS011;10096;51.112;6.776;2023-03-26T15:06:28;2.80;;;2.42;;
19867;SDS011;10096;51.112;6.776;2023-03-26T15:09:33;3.55;;;2.20;;
19867;SDS011;10096;51.112;6.776;2023-03-26T15:12:23;2.50;;;1.90;;
19867;SDS011;10096;51.112;6.776;2023-03-26T15:21:11;2.75;;;2.30;;
19867;SDS011;10096;51.112;6.776;2023-03-26T15:24:22;2.92;;;2.72;;
19867;SDS011;10096;51.112;6.776;2023-03-26T15:27:17;3.75;;;2.50;;
19867;SDS011;10096;51.112;6.776;2023-03-26T15:33:31;3.22;;;2.92;;
19867;SDS011;10096;51.112;6.776;2023-03-26T15:42:35;3.47;;;3.17;;
19867;SDS011;10096;51.112;6.776;2023-03-26T15:45:30;3.05;;;2.75;;
19867;SDS011;10096;51.112;6.776;2023-03-26T15:51:27;3.07;;;2.77;;
19867;SDS011;10096;51.112;6.776;2023-03-26T15:54:05;3.77;;;2.53;;
19867;SDS011;10096;51.112;6.776;2023-03-26T15:56:50;2.78;;;2.40;;
19867;SDS011;10096;51.112;6.776;2023-03-26T15:59:36;4.28;;;2.70;;
19867;SDS011;10096;51.112;6.776;2023-03-26T16:02:15;2.83;;;2.63;;
19867;SDS011;10096;51.112;6.776;2023-03-26T16:05:01;6.07;;;3.45;;
19867;SDS011;10096;51.112;6.776;2023-03-26T16:07:47;4.05;;;3.50;;
19867;SDS011;10096;51.112;6.776;2023-03-26T16:10:26;3.67;;;3.33;;
19867;SDS011;10096;51.112;6.776;2023-03-26T16:18:52;4.10;;;2.73;;
19867;SDS011;10096;51.112;6.776;2023-03-26T16:21:37;2.60;;;2.40;;
19867;SDS011;10096;51.112;6.776;2023-03-26T16:24:20;3.50;;;3.03;;
19867;SDS011;10096;51.112;6.776;2023-03-26T16:30:01;3.80;;;3.33;;
19867;SDS011;10096;51.112;6.776;2023-03-26T16:32:51;3.43;;;3.07;;
19867;SDS011;10096;51.112;6.776;2023-03-26T16:35:34;4.47;;;3.57;;
19867;SDS011;10096;51.112;6.776;2023-03-26T16:38:10;3.83;;;3.10;;
19867;SDS011;10096;51.112;6.776;2023-03-26T16:40:50;5.17;;;4.70;;
19867;SDS011;10096;51.112;6.776;2023-03-26T16:43:35;5.23;;;3.93;;
19867;SDS011;10096;51.112;6.776;2023-03-26T16:46:09;4.80;;;4.37;;
19867;SDS011;10096;51.112;6.776;2023-03-26T16:48:48;5.10;;;4.33;;